sensor_id;sensor_type;location;lat;lon;timestamp;P1;durP1;ratioP1;P2;durP2;ratioP2
77136;SDS011;66102;48.542;-2.970;2023-02-13T00:01:01;22.38;;;11.70;;
77136;SDS011;66102;48.542;-2.970;2023-02-13T00:03:28;23.27;;;12.48;;
77136;SDS011;66102;48.542;-2.970;2023-02-13T00:05:54;23.92;;;11.70;;
77136;SDS011;66102;48.542;-2.970;2023-02-13T00:08:20;20.30;;;9.98;;
77136;SDS011;66102;48.542;-2.970;2023-02-13T00:10:46;22.42;;;11.05;;
77136;SDS011;66102;48.542;-2.970;2023-02-13T00:13:12;24.13;;;10.13;;
77136;SDS011;66102;48.542;-2.970;2023-02-13T00:15:38;21.63;;;10.98;;
77136;SDS011;66102;48.542;-2.970;2023-02-13T00:18:04;21.08;;;10.80;;
77136;SDS011;66102;48.542;-2.970;2023-02-13T00:20:30;18.92;;;10.48;;
77136;SDS011;66102;48.542;-2.970;2023-02-13T00:22:57;20.30;;;10.20;;
77136;SDS011;66102;48.542;-2.970;2023-02-13T00:25:23;22.45;;;10.68;;
77136;SDS011;66102;48.542;-2.970;2023-02-13T00:27:50;22.10;;;12.30;;
77136;SDS011;66102;48.542;-2.970;2023-02-13T00:30:17;23.17;;;11.55;;
77136;SDS011;66102;48.542;-2.970;2023-02-13T00:32:43;20.25;;;10.20;;
77136;SDS011;66102;48.542;-2.970;2023-02-13T00:35:09;21.95;;;10.93;;
77136;SDS011;66102;48.542;-2.970;2023-02-13T00:37:36;27.85;;;12.18;;
77136;SDS011;66102;48.542;-2.970;2023-02-13T00:40:02;22.67;;;12.45;;
77136;SDS011;66102;48.542;-2.970;2023-02-13T00:42:28;22.88;;;11.63;;
77136;SDS011;66102;48.542;-2.970;2023-02-13T00:44:54;22.38;;;12.38;;
77136;SDS011;66102;48.542;-2.970;2023-02-13T00:47:20;22.42;;;11.43;;
77136;SDS011;66102;48.542;-2.970;2023-02-13T00:49:46;21.77;;;11.00;;
77136;SDS011;66102;48.542;-2.970;2023-02-13T00:52:13;22.38;;;12.07;;
77136;SDS011;66102;48.542;-2.970;2023-02-13T00:54:39;19.60;;;10.25;;
77136;SDS011;66102;48.542;-2.970;2023-02-13T00:57:05;21.35;;;12.30;;
77136;SDS011;66102;48.542;-2.970;2023-02-13T00:59:31;23.60;;;11.50;;
77136;SDS011;66102;48.542;-2.970;2023-02-13T01:01:57;22.45;;;11.85;;
77136;SDS011;66102;48.542;-2.970;2023-02-13T01:04:23;22.38;;;11.15;;
77136;SDS011;66102;48.542;-2.970;2023-02-13T01:06:49;20.92;;;11.05;;
77136;SDS011;66102;48.542;-2.970;2023-02-13T01:09:15;25.17;;;12.60;;
77136;SDS011;66102;48.542;-2.970;2023-02-13T01:11:41;27.77;;;13.90;;
77136;SDS011;66102;48.542;-2.970;2023-02-13T01:14:07;21.77;;;12.27;;
77136;SDS011;66102;48.542;-2.970;2023-02-13T01:16:33;19.63;;;11.13;;
77136;SDS011;66102;48.542;-2.970;2023-02-13T01:18:59;18.88;;;10.70;;
77136;SDS011;66102;48.542;-2.970;2023-02-13T01:21:25;21.77;;;11.60;;
77136;SDS011;66102;48.542;-2.970;2023-02-13T01:23:51;25.73;;;11.88;;
77136;SDS011;66102;48.542;-2.970;2023-02-13T01:26:19;21.23;;;12.73;;
77136;SDS011;66102;48.542;-2.970;2023-02-13T01:28:45;25.50;;;12.38;;
77136;SDS011;66102;48.542;-2.970;2023-02-13T01:31:11;22.63;;;11.95;;
77136;SDS011;66102;48.542;-2.970;2023-02-13T01:33:37;19.15;;;9.85;;
77136;SDS011;66102;48.542;-2.970;2023-02-13T01:36:04;20.52;;;10.50;;
77136;SDS011;66102;48.542;-2.970;2023-02-13T01:38:30;21.38;;;10.55;;
77136;SDS011;66102;48.542;-2.970;2023-02-13T01:40:56;18.60;;;10.23;;
77136;SDS011;66102;48.542;-2.970;2023-02-13T01:43:22;19.27;;;9.98;;
77136;SDS011;66102;48.542;-2.970;2023-02-13T01:45:50;22.17;;;10.93;;
77136;SDS011;66102;48.542;-2.970;2023-02-13T01:48:20;23.65;;;12.00;;
77136;SDS011;66102;48.542;-2.970;2023-02-13T01:50:48;20.40;;;11.18;;
77136;SDS011;66102;48.542;-2.970;2023-02-13T01:53:17;21.35;;;11.15;;
77136;SDS011;66102;48.542;-2.970;2023-02-13T01:55:48;23.25;;;10.38;;
77136;SDS011;66102;48.542;-2.970;2023-02-13T01:58:16;18.35;;;10.13;;
77136;SDS011;66102;48.542;-2.970;2023-02-13T02:00:43;19.45;;;9.63;;
77136;SDS011;66102;48.542;-2.970;2023-02-13T02:03:15;19.42;;;10.60;;
77136;SDS011;66102;48.542;-2.970;2023-02-13T02:05:42;21.08;;;11.35;;
77136;SDS011;66102;48.542;-2.970;2023-02-13T02:08:08;22.52;;;10.95;;
77136;SDS011;66102;48.542;-2.970;2023-02-13T02:10:35;21.35;;;11.73;;
77136;SDS011;66102;48.542;-2.970;2023-02-13T02:15:31;21.85;;;10.73;;
77136;SDS011;66102;48.542;-2.970;2023-02-13T02:17:57;23.73;;;11.40;;
77136;SDS011;66102;48.542;-2.970;2023-02-13T02:26:01;21.40;;;10.45;;
77136;SDS011;66102;48.542;-2.970;2023-02-13T02:34:50;18.35;;;9.68;;
77136;SDS011;66102;48.542;-2.970;2023-02-13T02:39:29;21.58;;;10.07;;
77136;SDS011;66102;48.542;-2.970;2023-02-13T02:41:59;23.33;;;10.13;;
77136;SDS011;66102;48.542;-2.970;2023-02-13T02:44:36;24.80;;;11.13;;
77136;SDS011;66102;48.542;-2.970;2023-02-13T02:49:58;20.98;;;10.80;;
77136;SDS011;66102;48.542;-2.970;2023-02-13T02:55:25;22.73;;;11.13;;
77136;SDS011;66102;48.542;-2.970;2023-02-13T02:58:18;22.67;;;11.23;;
77136;SDS011;66102;48.542;-2.970;2023-02-13T03:00:59;22.23;;;10.98;;
77136;SDS011;66102;48.542;-2.970;2023-02-13T03:03:45;26.25;;;11.95;;
77136;SDS011;66102;48.542;-2.970;2023-02-13T03:06:35;23.98;;;10.95;;
77136;SDS011;66102;48.542;-2.970;2023-02-13T03:09:04;21.45;;;11.00;;
77136;SDS011;66102;48.542;-2.970;2023-02-13T03:11:50;24.85;;;11.65;;
77136;SDS011;66102;48.542;-2.970;2023-02-13T03:14:37;18.77;;;10.20;;
77136;SDS011;66102;48.542;-2.970;2023-02-13T03:17:04;18.90;;;9.77;;
77136;SDS011;66102;48.542;-2.970;2023-02-13T03:38:58;18.33;;;9.38;;
77136;SDS011;66102;48.542;-2.970;2023-02-13T03:41:29;21.73;;;9.65;;
77136;SDS011;66102;48.542;-2.970;2023-02-13T03:44:06;21.38;;;10.82;;
77136;SDS011;66102;48.542;-2.970;2023-02-13T03:46:35;20.13;;;9.45;;
77136;SDS011;66102;48.542;-2.970;2023-02-13T03:49:03;23.67;;;10.85;;
77136;SDS011;66102;48.542;-2.970;2023-02-13T03:51:59;22.60;;;10.35;;
77136;SDS011;66102;48.542;-2.970;2023-02-13T03:54:38;26.55;;;11.13;;
77136;SDS011;66102;48.542;-2.970;2023-02-13T03:57:24;20.65;;;9.90;;
77136;SDS011;66102;48.542;-2.970;2023-02-13T04:00:11;23.15;;;12.25;;
77136;SDS011;66102;48.542;-2.970;2023-02-13T04:02:39;22.58;;;10.75;;
77136;SDS011;66102;48.542;-2.970;2023-02-13T04:05:07;22.65;;;11.70;;
77136;SDS011;66102;48.542;-2.970;2023-02-13T04:07:35;25.00;;;11.32;;
77136;SDS011;66102;48.542;-2.970;2023-02-13T04:10:02;20.85;;;9.45;;
77136;SDS011;66102;48.542;-2.970;2023-02-13T04:17:32;20.52;;;9.63;;
77136;SDS011;66102;48.542;-2.970;2023-02-13T04:22:26;21.42;;;9.75;;
77136;SDS011;66102;48.542;-2.970;2023-02-13T04:27:18;22.73;;;10.05;;
77136;SDS011;66102;48.542;-2.970;2023-02-13T04:32:10;19.70;;;9.77;;
77136;SDS011;66102;48.542;-2.970;2023-02-13T04:34:36;21.58;;;10.18;;
77136;SDS011;66102;48.542;-2.970;2023-02-13T04:37:03;20.77;;;10.02;;
77136;SDS011;66102;48.542;-2.970;2023-02-13T04:39:29;24.00;;;10.32;;
77136;SDS011;66102;48.542;-2.970;2023-02-13T04:44:21;20.95;;;9.75;;
77136;SDS011;66102;48.542;-2.970;2023-02-13T04:49:13;26.23;;;11.07;;
77136;SDS011;66102;48.542;-2.970;2023-02-13T04:51:39;20.48;;;9.95;;
77136;SDS011;66102;48.542;-2.970;2023-02-13T04:54:05;20.30;;;10.40;;
77136;SDS011;66102;48.542;-2.970;2023-02-13T04:58:57;27.05;;;12.35;;
77136;SDS011;66102;48.542;-2.970;2023-02-13T05:03:49;28.70;;;12.25;;
77136;SDS011;66102;48.542;-2.970;2023-02-13T05:08:41;24.95;;;10.85;;
77136;SDS011;66102;48.542;-2.970;2023-02-13T05:11:07;30.15;;;12.57;;
77136;SDS011;66102;48.542;-2.970;2023-02-13T05:13:33;26.90;;;12.32;;
77136;SDS011;66102;48.542;-2.970;2023-02-13T05:18:25;28.75;;;13.52;;
77136;SDS011;66102;48.542;-2.970;2023-02-13T05:20:51;39.15;;;16.98;;
77136;SDS011;66102;48.542;-2.970;2023-02-13T05:23:36;38.08;;;17.63;;
77136;SDS011;66102;48.542;-2.970;2023-02-13T05:28:28;56.88;;;22.92;;
77136;SDS011;66102;48.542;-2.970;2023-02-13T05:31:12;49.58;;;21.67;;
77136;SDS011;66102;48.542;-2.970;2023-02-13T05:33:38;44.92;;;19.85;;
77136;SDS011;66102;48.542;-2.970;2023-02-13T05:36:04;40.47;;;19.75;;
77136;SDS011;66102;48.542;-2.970;2023-02-13T05:38:30;44.72;;;20.65;;
77136;SDS011;66102;48.542;-2.970;2023-02-13T05:40:59;40.85;;;17.38;;
77136;SDS011;66102;48.542;-2.970;2023-02-13T05:43:26;34.95;;;16.42;;
77136;SDS011;66102;48.542;-2.970;2023-02-13T05:46:02;28.23;;;12.75;;
77136;SDS011;66102;48.542;-2.970;2023-02-13T05:48:29;36.83;;;16.98;;
77136;SDS011;66102;48.542;-2.970;2023-02-13T05:50:55;39.47;;;18.58;;
77136;SDS011;66102;48.542;-2.970;2023-02-13T05:53:21;38.15;;;18.10;;
77136;SDS011;66102;48.542;-2.970;2023-02-13T05:55:47;32.22;;;15.00;;
77136;SDS011;66102;48.542;-2.970;2023-02-13T05:58:16;29.60;;;14.68;;
77136;SDS011;66102;48.542;-2.970;2023-02-13T06:00:42;32.35;;;14.98;;
77136;SDS011;66102;48.542;-2.970;2023-02-13T06:03:08;40.45;;;16.88;;
77136;SDS011;66102;48.542;-2.970;2023-02-13T06:05:34;31.10;;;15.05;;
77136;SDS011;66102;48.542;-2.970;2023-02-13T06:08:00;29.08;;;14.43;;
77136;SDS011;66102;48.542;-2.970;2023-02-13T06:10:26;24.92;;;12.88;;
77136;SDS011;66102;48.542;-2.970;2023-02-13T06:12:52;23.50;;;11.27;;
77136;SDS011;66102;48.542;-2.970;2023-02-13T06:15:18;26.08;;;12.93;;
77136;SDS011;66102;48.542;-2.970;2023-02-13T06:17:45;26.45;;;13.48;;
77136;SDS011;66102;48.542;-2.970;2023-02-13T06:20:11;24.83;;;12.35;;
77136;SDS011;66102;48.542;-2.970;2023-02-13T06:22:37;26.38;;;12.43;;
77136;SDS011;66102;48.542;-2.970;2023-02-13T06:25:03;24.50;;;12.40;;
77136;SDS011;66102;48.542;-2.970;2023-02-13T06:27:29;27.92;;;13.82;;
77136;SDS011;66102;48.542;-2.970;2023-02-13T06:29:55;25.65;;;12.35;;
77136;SDS011;66102;48.542;-2.970;2023-02-13T06:32:21;25.60;;;11.45;;
77136;SDS011;66102;48.542;-2.970;2023-02-13T06:34:47;24.33;;;11.90;;
77136;SDS011;66102;48.542;-2.970;2023-02-13T06:37:13;29.10;;;11.98;;
77136;SDS011;66102;48.542;-2.970;2023-02-13T06:42:06;23.63;;;12.20;;
77136;SDS011;66102;48.542;-2.970;2023-02-13T06:44:32;25.65;;;12.13;;
77136;SDS011;66102;48.542;-2.970;2023-02-13T06:46:58;27.40;;;13.68;;
77136;SDS011;66102;48.542;-2.970;2023-02-13T06:49:24;33.15;;;16.58;;
77136;SDS011;66102;48.542;-2.970;2023-02-13T06:51:50;25.92;;;11.82;;
77136;SDS011;66102;48.542;-2.970;2023-02-13T06:56:42;31.35;;;14.95;;
77136;SDS011;66102;48.542;-2.970;2023-02-13T07:01:34;28.17;;;12.60;;
77136;SDS011;66102;48.542;-2.970;2023-02-13T07:06:26;25.75;;;11.80;;
77136;SDS011;66102;48.542;-2.970;2023-02-13T07:08:53;24.30;;;11.00;;
77136;SDS011;66102;48.542;-2.970;2023-02-13T07:11:20;25.15;;;12.55;;
77136;SDS011;66102;48.542;-2.970;2023-02-13T07:13:46;30.65;;;12.68;;
77136;SDS011;66102;48.542;-2.970;2023-02-13T07:18:38;25.17;;;12.60;;
77136;SDS011;66102;48.542;-2.970;2023-02-13T07:23:30;26.33;;;12.68;;
77136;SDS011;66102;48.542;-2.970;2023-02-13T07:28:22;30.42;;;13.45;;
77136;SDS011;66102;48.542;-2.970;2023-02-13T07:33:14;32.53;;;14.32;;
77136;SDS011;66102;48.542;-2.970;2023-02-13T07:38:06;34.22;;;14.75;;
77136;SDS011;66102;48.542;-2.970;2023-02-13T07:40:32;33.60;;;15.65;;
77136;SDS011;66102;48.542;-2.970;2023-02-13T07:45:25;29.33;;;14.23;;
77136;SDS011;66102;48.542;-2.970;2023-02-13T07:50:17;30.98;;;13.93;;
77136;SDS011;66102;48.542;-2.970;2023-02-13T07:55:09;37.10;;;15.52;;
77136;SDS011;66102;48.542;-2.970;2023-02-13T07:57:35;35.67;;;14.63;;
77136;SDS011;66102;48.542;-2.970;2023-02-13T08:02:27;31.17;;;13.55;;
77136;SDS011;66102;48.542;-2.970;2023-02-13T08:07:19;32.88;;;15.25;;
77136;SDS011;66102;48.542;-2.970;2023-02-13T08:12:30;32.83;;;14.63;;
77136;SDS011;66102;48.542;-2.970;2023-02-13T08:14:58;34.33;;;15.15;;
77136;SDS011;66102;48.542;-2.970;2023-02-13T08:17:24;33.33;;;13.88;;
77136;SDS011;66102;48.542;-2.970;2023-02-13T08:19:50;26.98;;;13.32;;
77136;SDS011;66102;48.542;-2.970;2023-02-13T08:22:16;29.20;;;13.70;;
77136;SDS011;66102;48.542;-2.970;2023-02-13T08:24:42;32.45;;;14.77;;
77136;SDS011;66102;48.542;-2.970;2023-02-13T08:27:11;28.35;;;13.82;;
77136;SDS011;66102;48.542;-2.970;2023-02-13T08:29:38;27.55;;;13.23;;
77136;SDS011;66102;48.542;-2.970;2023-02-13T08:32:04;27.65;;;14.10;;
77136;SDS011;66102;48.542;-2.970;2023-02-13T08:34:30;30.42;;;15.18;;
77136;SDS011;66102;48.542;-2.970;2023-02-13T08:36:56;27.80;;;13.73;;
77136;SDS011;66102;48.542;-2.970;2023-02-13T08:39:22;24.58;;;12.48;;
77136;SDS011;66102;48.542;-2.970;2023-02-13T08:41:48;25.80;;;13.77;;
77136;SDS011;66102;48.542;-2.970;2023-02-13T08:44:14;27.52;;;13.60;;
77136;SDS011;66102;48.542;-2.970;2023-02-13T08:46:40;26.70;;;13.43;;
77136;SDS011;66102;48.542;-2.970;2023-02-13T08:49:06;28.00;;;15.50;;
77136;SDS011;66102;48.542;-2.970;2023-02-13T08:51:32;27.40;;;14.27;;
77136;SDS011;66102;48.542;-2.970;2023-02-13T08:53:58;28.05;;;14.32;;
77136;SDS011;66102;48.542;-2.970;2023-02-13T08:56:24;30.48;;;16.10;;
77136;SDS011;66102;48.542;-2.970;2023-02-13T08:58:50;26.73;;;14.40;;
77136;SDS011;66102;48.542;-2.970;2023-02-13T09:01:16;27.90;;;14.57;;
77136;SDS011;66102;48.542;-2.970;2023-02-13T09:03:42;26.83;;;14.30;;
77136;SDS011;66102;48.542;-2.970;2023-02-13T09:06:08;27.08;;;14.02;;
77136;SDS011;66102;48.542;-2.970;2023-02-13T09:08:35;26.85;;;14.27;;
77136;SDS011;66102;48.542;-2.970;2023-02-13T09:11:01;26.80;;;14.23;;
77136;SDS011;66102;48.542;-2.970;2023-02-13T09:13:30;27.85;;;14.25;;
77136;SDS011;66102;48.542;-2.970;2023-02-13T09:16:01;27.38;;;13.32;;
77136;SDS011;66102;48.542;-2.970;2023-02-13T09:18:27;23.27;;;12.98;;
77136;SDS011;66102;48.542;-2.970;2023-02-13T09:20:59;26.40;;;13.82;;
77136;SDS011;66102;48.542;-2.970;2023-02-13T09:23:26;26.70;;;13.35;;
77136;SDS011;66102;48.542;-2.970;2023-02-13T09:25:52;24.35;;;13.73;;
77136;SDS011;66102;48.542;-2.970;2023-02-13T09:28:19;23.40;;;13.20;;
77136;SDS011;66102;48.542;-2.970;2023-02-13T09:30:45;26.25;;;13.77;;
77136;SDS011;66102;48.542;-2.970;2023-02-13T09:33:17;26.65;;;14.88;;
77136;SDS011;66102;48.542;-2.970;2023-02-13T09:35:44;29.25;;;14.75;;
77136;SDS011;66102;48.542;-2.970;2023-02-13T09:38:10;27.27;;;14.65;;
77136;SDS011;66102;48.542;-2.970;2023-02-13T09:40:43;27.50;;;14.88;;
77136;SDS011;66102;48.542;-2.970;2023-02-13T09:43:13;31.65;;;17.02;;
77136;SDS011;66102;48.542;-2.970;2023-02-13T09:45:43;29.55;;;14.52;;
77136;SDS011;66102;48.542;-2.970;2023-02-13T09:51:14;24.45;;;14.05;;
77136;SDS011;66102;48.542;-2.970;2023-02-13T09:54:02;30.17;;;14.85;;
77136;SDS011;66102;48.542;-2.970;2023-02-13T09:59:27;27.88;;;15.35;;
77136;SDS011;66102;48.542;-2.970;2023-02-13T10:02:21;27.90;;;16.08;;
77136;SDS011;66102;48.542;-2.970;2023-02-13T10:10:22;28.88;;;15.25;;
77136;SDS011;66102;48.542;-2.970;2023-02-13T10:17:58;25.42;;;13.05;;
77136;SDS011;66102;48.542;-2.970;2023-02-13T10:20:33;24.70;;;14.10;;
77136;SDS011;66102;48.542;-2.970;2023-02-13T10:23:23;25.00;;;13.82;;
77136;SDS011;66102;48.542;-2.970;2023-02-13T10:25:56;24.20;;;12.25;;
77136;SDS011;66102;48.542;-2.970;2023-02-13T10:28:44;24.10;;;12.57;;
77136;SDS011;66102;48.542;-2.970;2023-02-13T10:31:10;25.63;;;14.02;;
77136;SDS011;66102;48.542;-2.970;2023-02-13T10:33:39;23.38;;;12.98;;
77136;SDS011;66102;48.542;-2.970;2023-02-13T10:38:40;22.65;;;12.63;;
77136;SDS011;66102;48.542;-2.970;2023-02-13T10:41:51;21.27;;;11.30;;
77136;SDS011;66102;48.542;-2.970;2023-02-13T10:46:38;25.25;;;12.43;;
77136;SDS011;66102;48.542;-2.970;2023-02-13T10:51:53;21.35;;;11.13;;
77136;SDS011;66102;48.542;-2.970;2023-02-13T10:54:23;20.55;;;11.52;;
77136;SDS011;66102;48.542;-2.970;2023-02-13T11:04:17;18.23;;;10.15;;
77136;SDS011;66102;48.542;-2.970;2023-02-13T11:06:50;16.38;;;8.90;;
77136;SDS011;66102;48.542;-2.970;2023-02-13T11:09:17;20.40;;;10.40;;
77136;SDS011;66102;48.542;-2.970;2023-02-13T11:11:44;19.45;;;10.10;;
77136;SDS011;66102;48.542;-2.970;2023-02-13T11:14:12;19.17;;;8.77;;
77136;SDS011;66102;48.542;-2.970;2023-02-13T11:19:21;19.13;;;10.50;;
77136;SDS011;66102;48.542;-2.970;2023-02-13T11:21:52;20.25;;;9.73;;
77136;SDS011;66102;48.542;-2.970;2023-02-13T11:24:22;16.67;;;8.52;;
77136;SDS011;66102;48.542;-2.970;2023-02-13T11:26:50;19.65;;;9.20;;
77136;SDS011;66102;48.542;-2.970;2023-02-13T11:29:19;22.13;;;10.65;;
77136;SDS011;66102;48.542;-2.970;2023-02-13T11:31:46;18.77;;;9.15;;
77136;SDS011;66102;48.542;-2.970;2023-02-13T11:34:26;16.92;;;8.63;;
77136;SDS011;66102;48.542;-2.970;2023-02-13T11:36:53;16.17;;;9.13;;
77136;SDS011;66102;48.542;-2.970;2023-02-13T11:39:21;15.32;;;7.43;;
77136;SDS011;66102;48.542;-2.970;2023-02-13T11:41:51;18.77;;;8.68;;
77136;SDS011;66102;48.542;-2.970;2023-02-13T11:44:27;16.05;;;8.63;;
77136;SDS011;66102;48.542;-2.970;2023-02-13T11:47:00;15.32;;;7.80;;
77136;SDS011;66102;48.542;-2.970;2023-02-13T11:49:32;20.30;;;9.52;;
77136;SDS011;66102;48.542;-2.970;2023-02-13T11:52:03;16.52;;;8.23;;
77136;SDS011;66102;48.542;-2.970;2023-02-13T11:59:40;14.40;;;7.60;;
77136;SDS011;66102;48.542;-2.970;2023-02-13T12:03:08;14.60;;;7.15;;
77136;SDS011;66102;48.542;-2.970;2023-02-13T12:05:19;15.05;;;6.60;;
77136;SDS011;66102;48.542;-2.970;2023-02-13T12:07:46;13.77;;;7.13;;
77136;SDS011;66102;48.542;-2.970;2023-02-13T12:10:25;15.18;;;6.55;;
77136;SDS011;66102;48.542;-2.970;2023-02-13T12:15:35;14.65;;;7.80;;
77136;SDS011;66102;48.542;-2.970;2023-02-13T12:18:14;13.73;;;6.75;;
77136;SDS011;66102;48.542;-2.970;2023-02-13T12:26:30;14.40;;;6.95;;
77136;SDS011;66102;48.542;-2.970;2023-02-13T12:29:00;12.30;;;6.88;;
77136;SDS011;66102;48.542;-2.970;2023-02-13T12:36:30;14.75;;;6.55;;
77136;SDS011;66102;48.542;-2.970;2023-02-13T12:44:41;13.55;;;5.85;;
77136;SDS011;66102;48.542;-2.970;2023-02-13T12:47:23;12.90;;;7.05;;
77136;SDS011;66102;48.542;-2.970;2023-02-13T13:10:46;10.77;;;6.07;;
77136;SDS011;66102;48.542;-2.970;2023-02-13T13:23:30;13.70;;;6.55;;
77136;SDS011;66102;48.542;-2.970;2023-02-13T13:26:14;11.65;;;6.03;;
77136;SDS011;66102;48.542;-2.970;2023-02-13T13:28:42;12.93;;;6.20;;
77136;SDS011;66102;48.542;-2.970;2023-02-13T13:31:09;12.20;;;5.55;;
77136;SDS011;66102;48.542;-2.970;2023-02-13T13:33:38;12.30;;;5.78;;
77136;SDS011;66102;48.542;-2.970;2023-02-13T13:44:13;13.43;;;5.70;;
77136;SDS011;66102;48.542;-2.970;2023-02-13T13:49:13;10.35;;;5.28;;
77136;SDS011;66102;48.542;-2.970;2023-02-13T13:51:42;10.40;;;4.80;;
77136;SDS011;66102;48.542;-2.970;2023-02-13T14:07:37;11.82;;;5.70;;
77136;SDS011;66102;48.542;-2.970;2023-02-13T14:14:57;14.23;;;6.60;;
77136;SDS011;66102;48.542;-2.970;2023-02-13T14:22:53;13.25;;;6.93;;
77136;SDS011;66102;48.542;-2.970;2023-02-13T14:25:23;14.95;;;7.80;;
77136;SDS011;66102;48.542;-2.970;2023-02-13T14:28:35;11.60;;;5.78;;
77136;SDS011;66102;48.542;-2.970;2023-02-13T14:30:37;13.60;;;6.88;;
77136;SDS011;66102;48.542;-2.970;2023-02-13T14:33:06;21.90;;;8.43;;
77136;SDS011;66102;48.542;-2.970;2023-02-13T14:35:43;14.70;;;7.60;;
77136;SDS011;66102;48.542;-2.970;2023-02-13T14:38:21;16.10;;;7.85;;
77136;SDS011;66102;48.542;-2.970;2023-02-13T14:40:54;14.93;;;7.38;;
77136;SDS011;66102;48.542;-2.970;2023-02-13T14:43:36;13.95;;;8.23;;
77136;SDS011;66102;48.542;-2.970;2023-02-13T14:46:23;16.90;;;7.93;;
77136;SDS011;66102;48.542;-2.970;2023-02-13T14:48:59;16.85;;;8.40;;
77136;SDS011;66102;48.542;-2.970;2023-02-13T14:54:26;17.70;;;9.32;;
77136;SDS011;66102;48.542;-2.970;2023-02-13T14:56:58;16.10;;;8.77;;
77136;SDS011;66102;48.542;-2.970;2023-02-13T14:59:29;14.70;;;7.97;;
77136;SDS011;66102;48.542;-2.970;2023-02-13T15:04:45;14.90;;;7.47;;
77136;SDS011;66102;48.542;-2.970;2023-02-13T15:07:15;16.15;;;8.63;;
77136;SDS011;66102;48.542;-2.970;2023-02-13T15:09:44;17.73;;;9.73;;
77136;SDS011;66102;48.542;-2.970;2023-02-13T15:14:49;15.95;;;8.00;;
77136;SDS011;66102;48.542;-2.970;2023-02-13T15:19:46;18.48;;;9.77;;
77136;SDS011;66102;48.542;-2.970;2023-02-13T15:22:19;18.25;;;9.90;;
77136;SDS011;66102;48.542;-2.970;2023-02-13T15:24:46;20.30;;;10.45;;
77136;SDS011;66102;48.542;-2.970;2023-02-13T15:27:23;18.33;;;10.63;;
77136;SDS011;66102;48.542;-2.970;2023-02-13T15:29:54;21.75;;;10.60;;
77136;SDS011;66102;48.542;-2.970;2023-02-13T15:32:25;16.98;;;9.27;;
77136;SDS011;66102;48.542;-2.970;2023-02-13T15:34:51;20.30;;;10.50;;
77136;SDS011;66102;48.542;-2.970;2023-02-13T15:37:21;17.92;;;9.63;;
77136;SDS011;66102;48.542;-2.970;2023-02-13T15:39:48;19.08;;;9.55;;
77136;SDS011;66102;48.542;-2.970;2023-02-13T15:42:14;18.65;;;10.02;;
77136;SDS011;66102;48.542;-2.970;2023-02-13T15:44:40;18.35;;;9.98;;
77136;SDS011;66102;48.542;-2.970;2023-02-13T15:49:42;18.92;;;9.52;;
77136;SDS011;66102;48.542;-2.970;2023-02-13T15:55:17;18.02;;;9.32;;
77136;SDS011;66102;48.542;-2.970;2023-02-13T15:57:43;17.13;;;8.45;;
77136;SDS011;66102;48.542;-2.970;2023-02-13T16:00:12;16.90;;;7.78;;
77136;SDS011;66102;48.542;-2.970;2023-02-13T16:02:44;21.17;;;8.63;;
77136;SDS011;66102;48.542;-2.970;2023-02-13T16:05:12;15.27;;;7.60;;
77136;SDS011;66102;48.542;-2.970;2023-02-13T16:07:49;15.80;;;8.82;;
77136;SDS011;66102;48.542;-2.970;2023-02-13T16:13:02;12.55;;;6.88;;
77136;SDS011;66102;48.542;-2.970;2023-02-13T16:15:30;17.92;;;7.68;;
77136;SDS011;66102;48.542;-2.970;2023-02-13T16:17:56;15.05;;;6.53;;
77136;SDS011;66102;48.542;-2.970;2023-02-13T16:20:23;13.38;;;6.82;;
77136;SDS011;66102;48.542;-2.970;2023-02-13T16:27:59;12.68;;;7.10;;
77136;SDS011;66102;48.542;-2.970;2023-02-13T16:33:07;14.52;;;6.45;;
77136;SDS011;66102;48.542;-2.970;2023-02-13T16:35:36;13.00;;;7.10;;
77136;SDS011;66102;48.542;-2.970;2023-02-13T16:38:03;16.92;;;7.43;;
77136;SDS011;66102;48.542;-2.970;2023-02-13T16:40:33;15.70;;;6.70;;
77136;SDS011;66102;48.542;-2.970;2023-02-13T16:45:44;13.93;;;6.32;;
77136;SDS011;66102;48.542;-2.970;2023-02-13T16:48:13;13.55;;;6.43;;
77136;SDS011;66102;48.542;-2.970;2023-02-13T16:50:40;16.17;;;6.35;;
77136;SDS011;66102;48.542;-2.970;2023-02-13T16:53:06;12.88;;;6.30;;
77136;SDS011;66102;48.542;-2.970;2023-02-13T16:55:33;14.77;;;6.38;;
77136;SDS011;66102;48.542;-2.970;2023-02-13T16:58:02;14.63;;;6.78;;
77136;SDS011;66102;48.542;-2.970;2023-02-13T17:00:29;12.93;;;6.88;;
77136;SDS011;66102;48.542;-2.970;2023-02-13T17:02:56;14.90;;;6.85;;
77136;SDS011;66102;48.542;-2.970;2023-02-13T17:05:23;16.73;;;6.88;;
77136;SDS011;66102;48.542;-2.970;2023-02-13T17:07:50;17.27;;;7.20;;
77136;SDS011;66102;48.542;-2.970;2023-02-13T17:12:57;16.60;;;7.38;;
77136;SDS011;66102;48.542;-2.970;2023-02-13T17:15:27;14.32;;;7.50;;
77136;SDS011;66102;48.542;-2.970;2023-02-13T17:17:55;13.52;;;6.95;;
77136;SDS011;66102;48.542;-2.970;2023-02-13T17:20:26;20.90;;;7.53;;
77136;SDS011;66102;48.542;-2.970;2023-02-13T17:22:53;17.00;;;6.90;;
77136;SDS011;66102;48.542;-2.970;2023-02-13T17:25:20;14.23;;;6.95;;
77136;SDS011;66102;48.542;-2.970;2023-02-13T17:27:47;15.05;;;7.55;;
77136;SDS011;66102;48.542;-2.970;2023-02-13T17:30:15;20.08;;;9.18;;
77136;SDS011;66102;48.542;-2.970;2023-02-13T17:32:41;15.00;;;7.63;;
77136;SDS011;66102;48.542;-2.970;2023-02-13T17:35:10;17.20;;;7.32;;
77136;SDS011;66102;48.542;-2.970;2023-02-13T17:37:36;16.25;;;7.35;;
77136;SDS011;66102;48.542;-2.970;2023-02-13T17:40:03;14.20;;;7.30;;
77136;SDS011;66102;48.542;-2.970;2023-02-13T17:42:29;18.70;;;6.93;;
77136;SDS011;66102;48.542;-2.970;2023-02-13T17:44:56;16.58;;;6.93;;
77136;SDS011;66102;48.542;-2.970;2023-02-13T17:47:23;19.77;;;7.72;;
77136;SDS011;66102;48.542;-2.970;2023-02-13T17:49:49;14.80;;;7.40;;
77136;SDS011;66102;48.542;-2.970;2023-02-13T17:52:17;20.17;;;7.90;;
77136;SDS011;66102;48.542;-2.970;2023-02-13T17:54:43;15.20;;;7.47;;
77136;SDS011;66102;48.542;-2.970;2023-02-13T17:57:10;15.35;;;7.88;;
77136;SDS011;66102;48.542;-2.970;2023-02-13T17:59:36;17.08;;;7.68;;
77136;SDS011;66102;48.542;-2.970;2023-02-13T18:02:02;17.02;;;7.95;;
77136;SDS011;66102;48.542;-2.970;2023-02-13T18:04:28;16.45;;;8.13;;
77136;SDS011;66102;48.542;-2.970;2023-02-13T18:06:54;17.40;;;8.57;;
77136;SDS011;66102;48.542;-2.970;2023-02-13T18:09:22;14.82;;;7.63;;
77136;SDS011;66102;48.542;-2.970;2023-02-13T18:11:48;16.33;;;7.55;;
77136;SDS011;66102;48.542;-2.970;2023-02-13T18:14:15;14.80;;;7.93;;
77136;SDS011;66102;48.542;-2.970;2023-02-13T18:16:41;19.23;;;7.30;;
77136;SDS011;66102;48.542;-2.970;2023-02-13T18:19:07;16.02;;;8.73;;
77136;SDS011;66102;48.542;-2.970;2023-02-13T18:21:33;15.90;;;7.47;;
77136;SDS011;66102;48.542;-2.970;2023-02-13T18:23:59;15.32;;;7.28;;
77136;SDS011;66102;48.542;-2.970;2023-02-13T18:26:25;19.27;;;7.95;;
77136;SDS011;66102;48.542;-2.970;2023-02-13T18:28:51;14.85;;;6.65;;
77136;SDS011;66102;48.542;-2.970;2023-02-13T18:31:18;15.15;;;7.03;;
77136;SDS011;66102;48.542;-2.970;2023-02-13T18:33:44;15.52;;;6.75;;
77136;SDS011;66102;48.542;-2.970;2023-02-13T18:36:10;19.30;;;8.48;;
77136;SDS011;66102;48.542;-2.970;2023-02-13T18:38:37;20.40;;;7.93;;
77136;SDS011;66102;48.542;-2.970;2023-02-13T18:41:03;19.02;;;8.82;;
77136;SDS011;66102;48.542;-2.970;2023-02-13T18:43:29;20.75;;;8.73;;
77136;SDS011;66102;48.542;-2.970;2023-02-13T18:45:55;17.60;;;7.40;;
77136;SDS011;66102;48.542;-2.970;2023-02-13T18:48:21;15.82;;;7.57;;